createdAt,value
2018-07-24T00:00:59.047Z,0.00
2018-07-24T00:02:51.967Z,0.00
2018-07-24T00:03:51.835Z,0.00
2018-07-24T00:05:44.845Z,0.00
2018-07-24T00:06:44.790Z,0.00
2018-07-24T00:08:37.785Z,0.00
2018-07-24T00:09:37.742Z,0.00
2018-07-24T00:11:31.608Z,0.00
2018-07-24T00:12:31.562Z,0.00
2018-07-24T00:14:24.560Z,0.00
2018-07-24T00:15:24.523Z,0.00
2018-07-24T00:17:17.557Z,0.00
2018-07-24T00:18:17.493Z,0.00
2018-07-24T00:20:10.642Z,0.00
2018-07-24T00:21:10.611Z,0.00
2018-07-24T00:23:03.643Z,0.00
2018-07-24T00:24:03.601Z,0.00
2018-07-24T00:25:56.613Z,0.00
2018-07-24T00:26:56.583Z,0.00
2018-07-24T00:28:49.586Z,0.00
2018-07-24T00:29:49.528Z,0.00
2018-07-24T00:31:42.510Z,0.00
2018-07-24T00:32:42.479Z,0.00
2018-07-24T00:34:35.639Z,0.00
2018-07-24T00:35:35.592Z,0.00
2018-07-24T00:37:28.604Z,0.00
2018-07-24T00:38:28.549Z,0.00
2018-07-24T00:40:21.535Z,0.00
2018-07-24T00:41:21.498Z,0.00
2018-07-24T00:43:14.483Z,0.00
2018-07-24T00:44:14.391Z,0.00
2018-07-24T00:46:07.208Z,0.00
2018-07-24T00:47:07.169Z,0.00
2018-07-24T00:49:00.217Z,0.00
2018-07-24T00:50:00.157Z,0.00
2018-07-24T00:51:53.202Z,0.00
2018-07-24T00:52:53.173Z,0.00
2018-07-24T00:54:46.193Z,0.00
2018-07-24T00:55:46.132Z,0.00
2018-07-24T00:57:39.142Z,0.00
2018-07-24T00:58:39.089Z,0.00
2018-07-24T01:00:32.290Z,0.00
2018-07-24T01:01:32.200Z,0.00
2018-07-24T01:03:25.207Z,0.00
2018-07-24T01:04:25.182Z,0.00
2018-07-24T01:06:18.159Z,0.00
2018-07-24T01:07:18.120Z,0.00
2018-07-24T01:09:10.974Z,0.00
2018-07-24T01:10:10.905Z,0.00
2018-07-24T01:12:03.891Z,0.00
2018-07-24T01:13:03.864Z,0.00
2018-07-24T01:14:56.860Z,0.00
2018-07-24T01:15:56.811Z,0.00
2018-07-24T01:17:50.000Z,0.00
2018-07-24T01:18:49.900Z,0.00
2018-07-24T01:20:42.907Z,0.00
2018-07-24T01:21:42.849Z,0.00
2018-07-24T01:23:35.847Z,0.00
2018-07-24T01:24:35.813Z,0.00
2018-07-24T01:26:28.830Z,0.00
2018-07-24T01:27:28.660Z,0.00
2018-07-24T01:29:21.689Z,0.00
2018-07-24T01:30:21.654Z,0.00
2018-07-24T01:32:14.485Z,0.00
2018-07-24T01:33:14.444Z,0.00
2018-07-24T01:35:07.743Z,0.00
2018-07-24T01:36:07.535Z,0.00
2018-07-24T01:38:00.534Z,0.00
2018-07-24T01:39:00.486Z,0.00
2018-07-24T01:40:53.492Z,0.00
2018-07-24T01:41:53.449Z,0.00
2018-07-24T01:43:46.584Z,0.00
2018-07-24T01:44:46.535Z,0.00
2018-07-24T01:46:39.556Z,0.00
2018-07-24T01:47:39.502Z,0.00
2018-07-24T01:49:32.467Z,0.00
2018-07-24T01:50:32.445Z,0.00
2018-07-24T01:52:25.467Z,0.00
2018-07-24T01:53:25.416Z,0.00
2018-07-24T01:55:18.404Z,0.00
2018-07-24T01:56:18.419Z,0.00
2018-07-24T01:58:11.596Z,0.00
2018-07-24T01:59:11.495Z,0.00
2018-07-24T02:01:04.514Z,0.00
2018-07-24T02:02:04.446Z,0.00
2018-07-24T02:03:57.706Z,0.00
2018-07-24T02:04:57.671Z,0.00
2018-07-24T02:06:50.677Z,0.00
2018-07-24T02:07:50.626Z,0.00
2018-07-24T02:09:43.605Z,0.00
2018-07-24T02:10:43.581Z,0.00
2018-07-24T02:12:36.784Z,0.00
2018-07-24T02:13:36.682Z,0.00
2018-07-24T02:15:29.656Z,0.00
2018-07-24T02:16:29.618Z,0.00
2018-07-24T02:18:22.627Z,0.00
2018-07-24T02:19:22.571Z,0.00
2018-07-24T02:21:15.620Z,0.00
2018-07-24T02:22:15.581Z,0.00
2018-07-24T02:24:08.675Z,0.00
2018-07-24T02:25:08.626Z,0.00
2018-07-24T02:27:01.769Z,0.00
2018-07-24T02:28:01.731Z,0.00
2018-07-24T02:29:54.743Z,0.00
2018-07-24T02:30:54.698Z,0.00
2018-07-24T02:32:48.701Z,0.00
2018-07-24T02:33:48.654Z,0.00
2018-07-24T02:35:41.479Z,0.00
2018-07-24T02:36:41.426Z,0.00
2018-07-24T02:38:34.272Z,0.00
2018-07-24T02:39:34.227Z,0.00
2018-07-24T02:41:27.044Z,0.00
2018-07-24T02:42:26.991Z,0.00
2018-07-24T02:44:20.048Z,0.00
2018-07-24T02:45:19.992Z,0.00
2018-07-24T02:47:13.132Z,0.00
2018-07-24T02:48:13.107Z,0.00
2018-07-24T02:50:05.930Z,0.00
2018-07-24T02:51:05.888Z,0.00
2018-07-24T02:52:59.188Z,0.00
2018-07-24T02:53:59.169Z,0.00
2018-07-24T02:55:52.322Z,0.00
2018-07-24T02:56:52.272Z,0.00
2018-07-24T02:58:45.103Z,0.00
2018-07-24T02:59:45.065Z,0.00
2018-07-24T03:01:38.238Z,0.00
2018-07-24T03:02:38.073Z,0.00
2018-07-24T03:04:31.073Z,0.00
2018-07-24T03:05:31.020Z,0.00
2018-07-24T03:07:24.022Z,0.00
2018-07-24T03:08:23.964Z,0.00
2018-07-24T03:10:16.839Z,0.00
2018-07-24T03:11:16.788Z,0.00
2018-07-24T03:13:09.770Z,0.00
2018-07-24T03:14:09.734Z,0.00
2018-07-24T03:16:02.768Z,4.00
2018-07-24T03:17:02.699Z,0.00
2018-07-24T03:18:56.005Z,4.00
2018-07-24T03:19:55.970Z,4.00
2018-07-24T03:21:48.974Z,4.00
2018-07-24T03:22:48.935Z,4.00
2018-07-24T03:24:42.109Z,8.00
2018-07-24T03:25:42.039Z,8.00
2018-07-24T03:27:35.059Z,8.00
2018-07-24T03:28:34.989Z,12.00
2018-07-24T03:30:27.979Z,12.00
2018-07-24T03:31:27.943Z,12.00
2018-07-24T03:33:20.766Z,20.00
2018-07-24T03:34:20.737Z,24.00
2018-07-24T03:36:13.711Z,28.00
2018-07-24T03:37:13.680Z,28.00
2018-07-24T03:39:06.505Z,36.00
2018-07-24T03:40:06.445Z,40.00
2018-07-24T03:41:59.459Z,52.00
2018-07-24T03:42:59.437Z,56.00
2018-07-24T03:44:52.560Z,60.00
2018-07-24T03:45:52.465Z,68.00
2018-07-24T03:47:45.445Z,84.00
2018-07-24T03:48:45.420Z,88.00
2018-07-24T03:50:38.414Z,100.00
2018-07-24T03:51:38.362Z,112.00
2018-07-24T03:53:31.219Z,124.00
2018-07-24T03:54:31.154Z,132.00
2018-07-24T03:56:24.160Z,148.00
2018-07-24T03:57:24.110Z,160.00
2018-07-24T03:59:17.112Z,180.00
2018-07-24T04:00:17.075Z,184.00
2018-07-24T04:02:09.898Z,204.00
2018-07-24T04:03:09.848Z,216.00
2018-07-24T04:05:02.887Z,236.00
2018-07-24T04:06:02.821Z,244.00
2018-07-24T04:07:55.632Z,264.00
2018-07-24T04:08:55.596Z,276.00
2018-07-24T04:10:48.606Z,296.00
2018-07-24T04:11:48.561Z,308.00
2018-07-24T04:13:41.717Z,328.00
2018-07-24T04:14:41.665Z,340.00
2018-07-24T04:16:34.671Z,360.00
2018-07-24T04:17:34.621Z,372.00
2018-07-24T04:19:27.642Z,396.00
2018-07-24T04:20:27.589Z,408.00
2018-07-24T04:22:20.400Z,432.00
2018-07-24T04:23:20.377Z,444.00
2018-07-24T04:25:13.692Z,464.00
2018-07-24T04:26:13.644Z,476.00
2018-07-24T04:28:06.788Z,496.00
2018-07-24T04:29:06.756Z,508.00
2018-07-24T04:30:59.807Z,528.00
2018-07-24T04:31:59.712Z,540.00
2018-07-24T04:33:52.697Z,560.00
2018-07-24T04:34:52.666Z,576.00
2018-07-24T04:36:45.667Z,596.00
2018-07-24T04:37:45.622Z,608.00
2018-07-24T04:39:38.607Z,624.00
2018-07-24T04:40:38.576Z,640.00
2018-07-24T04:42:31.759Z,656.00
2018-07-24T04:43:31.701Z,668.00
2018-07-24T04:45:24.751Z,688.00
2018-07-24T04:46:24.688Z,700.00
2018-07-24T04:48:17.737Z,720.00
2018-07-24T04:49:17.676Z,728.00
2018-07-24T04:51:10.543Z,748.00
2018-07-24T04:52:10.497Z,756.00
2018-07-24T04:54:03.489Z,772.00
2018-07-24T04:55:03.460Z,784.00
2018-07-24T04:56:56.461Z,800.00
2018-07-24T04:57:56.404Z,812.00
2018-07-24T04:59:49.564Z,828.00
2018-07-24T05:00:49.519Z,836.00
2018-07-24T05:02:42.655Z,852.00
2018-07-24T05:03:42.509Z,860.00
2018-07-24T05:05:35.505Z,876.00
2018-07-24T05:06:35.462Z,880.00
2018-07-24T05:08:28.494Z,892.00
2018-07-24T05:09:28.467Z,900.00
2018-07-24T05:11:21.268Z,916.00
2018-07-24T05:12:21.230Z,924.00
2018-07-24T05:14:14.233Z,940.00
2018-07-24T05:15:14.185Z,944.00
2018-07-24T05:17:07.018Z,960.00
2018-07-24T05:18:06.968Z,964.00
2018-07-24T05:20:00.109Z,980.00
2018-07-24T05:21:00.069Z,984.00
2018-07-24T05:22:53.057Z,1000.00
2018-07-24T05:23:53.024Z,1008.00
2018-07-24T05:25:46.216Z,1020.00
2018-07-24T05:26:46.128Z,1028.00
2018-07-24T05:28:38.954Z,1036.00
2018-07-24T05:29:38.906Z,1044.00
2018-07-24T05:31:31.893Z,1060.00
2018-07-24T05:32:31.852Z,1060.00
2018-07-24T05:34:25.043Z,1076.00
2018-07-24T05:35:24.978Z,1084.00
2018-07-24T05:37:17.967Z,1096.00
2018-07-24T05:38:17.960Z,1104.00
2018-07-24T05:40:10.940Z,1116.00
2018-07-24T05:41:10.890Z,1124.00
2018-07-24T05:43:03.849Z,1136.00
2018-07-24T05:44:03.698Z,1140.00
2018-07-24T05:45:56.692Z,1152.00
2018-07-24T05:46:56.662Z,1160.00
2018-07-24T05:48:49.707Z,1172.00
2018-07-24T05:49:49.610Z,1180.00
2018-07-24T05:51:42.433Z,1192.00
2018-07-24T05:52:42.404Z,1196.00
2018-07-24T05:54:35.416Z,1208.00
2018-07-24T05:55:35.369Z,1216.00
2018-07-24T05:57:28.417Z,1228.00
2018-07-24T05:58:28.376Z,1232.00
2018-07-24T06:00:21.670Z,1248.00
2018-07-24T06:01:21.632Z,1252.00
2018-07-24T06:03:14.624Z,1264.00
2018-07-24T06:04:14.590Z,1276.00
2018-07-24T06:06:07.785Z,1284.00
2018-07-24T06:07:07.688Z,1288.00
2018-07-24T06:09:00.705Z,1308.00
2018-07-24T06:10:00.645Z,1312.00
2018-07-24T06:11:53.649Z,1328.00
2018-07-24T06:12:53.611Z,1332.00
2018-07-24T06:14:46.705Z,1348.00
2018-07-24T06:15:46.635Z,1356.00
2018-07-24T06:17:39.610Z,1372.00
2018-07-24T06:18:39.593Z,1380.00
2018-07-24T06:20:32.570Z,1396.00
2018-07-24T06:21:32.543Z,1408.00
2018-07-24T06:23:25.401Z,1424.00
2018-07-24T06:24:25.321Z,1432.00
2018-07-24T06:26:18.335Z,1448.00
2018-07-24T06:27:18.279Z,1456.00
2018-07-24T06:29:11.291Z,1468.00
2018-07-24T06:30:11.240Z,1472.00
2018-07-24T06:32:04.086Z,1488.00
2018-07-24T06:33:04.048Z,1496.00
2018-07-24T06:34:57.218Z,1512.00
2018-07-24T06:35:57.133Z,1520.00
2018-07-24T06:37:50.122Z,1532.00
2018-07-24T06:38:50.081Z,1540.00
2018-07-24T06:40:43.111Z,1548.00
2018-07-24T06:41:43.067Z,1560.00
2018-07-24T06:43:36.065Z,1576.00
2018-07-24T06:44:36.070Z,1580.00
2018-07-24T06:46:29.010Z,1600.00
2018-07-24T06:47:28.985Z,1604.00
2018-07-24T06:49:21.841Z,1624.00
2018-07-24T06:50:21.775Z,1632.00
2018-07-24T06:52:15.809Z,1648.00
2018-07-24T06:53:15.756Z,1660.00
2018-07-24T06:55:08.794Z,1672.00
2018-07-24T06:56:08.754Z,1684.00
2018-07-24T06:58:01.910Z,1700.00
2018-07-24T06:59:01.858Z,1712.00
2018-07-24T07:00:54.892Z,1728.00
2018-07-24T07:01:54.867Z,1740.00
2018-07-24T07:03:48.153Z,1748.00
2018-07-24T07:04:47.975Z,1756.00
2018-07-24T07:06:40.960Z,1768.00
2018-07-24T07:07:41.003Z,1772.00
2018-07-24T07:09:33.979Z,1784.00
2018-07-24T07:10:33.926Z,1796.00
2018-07-24T07:12:26.768Z,1812.00
2018-07-24T07:13:26.777Z,1824.00
2018-07-24T07:15:19.556Z,1836.00
2018-07-24T07:16:19.539Z,1848.00
2018-07-24T07:18:12.337Z,1860.00
2018-07-24T07:19:12.302Z,1872.00
2018-07-24T07:21:05.292Z,1888.00
2018-07-24T07:22:05.299Z,1900.00
2018-07-24T07:23:58.506Z,1916.00
2018-07-24T07:24:58.362Z,1928.00
2018-07-24T07:26:51.369Z,1952.00
2018-07-24T07:27:51.321Z,1960.00
2018-07-24T07:29:44.161Z,1532.00
2018-07-24T07:30:44.110Z,1540.00
2018-07-24T07:32:37.328Z,1556.00
2018-07-24T07:33:37.217Z,1564.00
2018-07-24T07:35:30.276Z,1584.00
2018-07-24T07:36:30.223Z,1592.00
2018-07-24T07:38:23.241Z,1612.00
2018-07-24T07:39:23.212Z,1620.00
2018-07-24T07:41:16.213Z,1640.00
2018-07-24T07:42:16.182Z,1656.00
2018-07-24T07:44:09.203Z,1676.00
2018-07-24T07:45:09.204Z,1688.00
2018-07-24T07:47:02.392Z,1696.00
2018-07-24T07:48:02.244Z,1696.00
2018-07-24T07:49:55.263Z,1732.00
2018-07-24T07:50:55.202Z,1752.00
2018-07-24T07:52:48.015Z,1756.00
2018-07-24T07:53:47.996Z,1764.00
2018-07-24T07:55:41.204Z,1784.00
2018-07-24T07:56:41.143Z,1800.00
2018-07-24T07:58:34.208Z,1816.00
2018-07-24T07:59:34.183Z,1828.00
2018-07-24T08:01:27.019Z,1848.00
2018-07-24T08:02:27.013Z,1864.00
2018-07-24T08:04:20.111Z,1892.00
2018-07-24T08:05:20.079Z,1904.00
2018-07-24T08:07:13.164Z,1932.00
2018-07-24T08:08:13.107Z,1948.00
2018-07-24T08:10:06.380Z,1964.00
2018-07-24T08:11:06.248Z,1976.00
2018-07-24T08:12:59.244Z,2012.00
2018-07-24T08:13:59.233Z,2024.00
2018-07-24T08:15:52.599Z,2048.00
2018-07-24T08:16:52.518Z,2052.00
2018-07-24T08:18:45.532Z,2084.00
2018-07-24T08:19:45.469Z,2100.00
2018-07-24T08:21:38.478Z,2132.00
2018-07-24T08:22:38.432Z,2148.00
2018-07-24T08:24:31.265Z,2176.00
2018-07-24T08:25:31.260Z,2192.00
2018-07-24T08:27:24.263Z,2220.00
2018-07-24T08:28:24.218Z,2236.00
2018-07-24T08:30:17.030Z,2264.00
2018-07-24T08:31:17.009Z,2292.00
2018-07-24T08:33:10.315Z,2324.00
2018-07-24T08:34:10.126Z,2336.00
2018-07-24T08:36:03.149Z,2360.00
2018-07-24T08:37:03.099Z,2372.00
2018-07-24T08:38:56.085Z,2408.00
2018-07-24T08:39:56.067Z,2420.00
2018-07-24T08:41:48.946Z,2440.00
2018-07-24T08:42:48.895Z,2448.00
2018-07-24T08:44:41.875Z,2464.00
2018-07-24T08:45:41.691Z,2476.00
2018-07-24T08:47:34.726Z,2504.00
2018-07-24T08:48:34.686Z,2520.00
2018-07-24T08:50:27.670Z,2556.00
2018-07-24T08:51:27.646Z,2568.00
2018-07-24T08:53:20.957Z,2584.00
2018-07-24T08:54:20.811Z,2592.00
2018-07-24T08:56:13.631Z,2612.00
2018-07-24T08:57:13.656Z,2620.00
2018-07-24T08:59:06.790Z,2636.00
2018-07-24T09:00:06.714Z,2644.00
2018-07-24T09:01:59.685Z,2664.00
2018-07-24T09:02:59.682Z,2676.00
2018-07-24T09:04:52.697Z,2708.00
2018-07-24T09:05:52.628Z,2728.00
2018-07-24T09:07:45.532Z,2744.00
2018-07-24T09:08:45.507Z,2752.00
2018-07-24T09:10:38.532Z,2776.00
2018-07-24T09:11:38.482Z,2784.00
2018-07-24T09:13:31.471Z,2804.00
2018-07-24T09:14:31.437Z,2816.00
2018-07-24T09:16:24.632Z,2840.00
2018-07-24T09:17:24.592Z,2856.00
2018-07-24T09:19:17.618Z,2872.00
2018-07-24T09:20:17.573Z,2884.00
2018-07-24T09:22:10.791Z,2908.00
2018-07-24T09:23:10.706Z,2928.00
2018-07-24T09:25:03.733Z,2948.00
2018-07-24T09:26:03.688Z,2964.00
2018-07-24T09:27:56.723Z,3008.00
2018-07-24T09:28:56.662Z,3032.00
2018-07-24T09:30:49.692Z,3088.00
2018-07-24T09:31:49.659Z,3116.00
2018-07-24T09:33:42.665Z,3164.00
2018-07-24T09:34:42.742Z,3176.00
2018-07-24T09:36:35.889Z,3208.00
2018-07-24T09:37:35.756Z,3216.00
2018-07-24T09:39:28.754Z,3224.00
2018-07-24T09:40:28.739Z,3232.00
2018-07-24T09:42:21.559Z,3248.00
2018-07-24T09:43:21.565Z,3272.00
2018-07-24T09:45:14.734Z,3312.00
2018-07-24T09:46:14.674Z,3328.00
2018-07-24T09:48:07.692Z,3384.00
2018-07-24T09:49:07.649Z,3428.00
2018-07-24T09:51:00.678Z,3516.00
2018-07-24T09:52:00.633Z,3564.00
2018-07-24T09:53:53.634Z,3632.00
2018-07-24T09:54:53.615Z,3660.00
2018-07-24T09:56:46.636Z,3696.00
2018-07-24T09:57:46.587Z,3760.00
2018-07-24T09:59:39.847Z,3864.00
2018-07-24T10:00:39.823Z,4052.00
2018-07-24T10:02:32.855Z,33504.00
2018-07-24T10:03:32.798Z,77344.00
2018-07-24T10:05:26.014Z,76032.00
2018-07-24T10:06:25.923Z,70560.00
2018-07-24T10:08:18.929Z,65536.00
2018-07-24T10:09:18.894Z,64896.00
2018-07-24T10:11:11.908Z,60576.00
2018-07-24T10:12:11.909Z,59936.00
2018-07-24T10:14:04.730Z,60480.00
2018-07-24T10:15:04.693Z,60512.00
2018-07-24T10:16:57.770Z,62144.00
2018-07-24T10:17:57.680Z,62048.00
2018-07-24T10:19:50.714Z,56576.00
2018-07-24T10:20:50.665Z,53696.00
2018-07-24T10:22:43.530Z,48608.00
2018-07-24T10:23:43.513Z,46848.00
2018-07-24T10:25:36.554Z,40416.00
2018-07-24T10:26:36.509Z,37888.00
2018-07-24T10:28:29.533Z,35072.00
2018-07-24T10:29:29.495Z,33472.00
2018-07-24T10:31:22.364Z,30112.00
2018-07-24T10:32:22.331Z,28992.00
2018-07-24T10:34:15.373Z,25888.00
2018-07-24T10:35:15.341Z,24640.00
2018-07-24T10:37:08.391Z,23552.00
2018-07-24T10:38:08.384Z,22624.00
2018-07-24T10:40:01.305Z,21472.00
2018-07-24T10:41:01.285Z,21216.00
2018-07-24T10:42:54.303Z,20736.00
2018-07-24T10:43:54.292Z,20352.00
2018-07-24T10:45:47.334Z,19712.00
2018-07-24T10:46:47.308Z,19264.00
2018-07-24T10:48:40.390Z,17504.00
2018-07-24T10:49:40.344Z,17248.00
2018-07-24T10:51:33.385Z,17728.00
2018-07-24T10:52:33.418Z,17600.00
2018-07-24T10:54:26.577Z,16960.00
2018-07-24T10:55:26.525Z,16960.00
2018-07-24T10:57:19.567Z,16864.00
2018-07-24T10:58:19.606Z,16800.00
2018-07-24T11:00:12.800Z,16928.00
2018-07-24T11:01:12.708Z,16576.00
2018-07-24T11:03:05.728Z,16416.00
2018-07-24T11:04:05.760Z,16416.00
2018-07-24T11:05:59.070Z,16800.00
2018-07-24T11:06:59.039Z,16992.00
2018-07-24T11:08:52.095Z,17120.00
2018-07-24T11:09:52.060Z,16800.00
2018-07-24T11:11:45.212Z,16260.00
2018-07-24T11:12:45.145Z,16280.00
2018-07-24T11:14:38.601Z,16116.00
2018-07-24T11:15:38.165Z,16384.00
2018-07-24T11:17:31.064Z,17088.00
2018-07-24T11:18:31.006Z,15888.00
2018-07-24T11:20:23.865Z,16280.00
2018-07-24T11:21:23.845Z,15876.00
2018-07-24T11:23:16.949Z,16028.00
2018-07-24T11:24:16.887Z,16140.00
2018-07-24T11:26:10.344Z,16512.00
2018-07-24T11:27:10.219Z,16640.00
2018-07-24T11:29:03.257Z,16352.00
2018-07-24T11:30:03.223Z,16512.00
2018-07-24T11:31:56.080Z,16016.00
2018-07-24T11:32:56.115Z,16736.00
2018-07-24T11:34:48.931Z,15920.00
2018-07-24T11:35:48.979Z,16168.00
2018-07-24T11:37:41.920Z,17280.00
2018-07-24T11:38:41.991Z,15048.00
2018-07-24T11:40:35.315Z,16544.00
2018-07-24T11:41:35.245Z,16800.00
2018-07-24T11:43:28.292Z,16992.00
2018-07-24T11:44:28.247Z,16960.00
2018-07-24T11:46:21.290Z,17312.00
2018-07-24T11:47:21.265Z,17440.00
2018-07-24T11:49:14.311Z,17632.00
2018-07-24T11:50:14.275Z,17504.00
2018-07-24T11:52:07.346Z,17408.00
2018-07-24T11:53:07.318Z,17088.00
2018-07-24T11:55:00.493Z,16736.00
2018-07-24T11:56:00.487Z,16092.00
2018-07-24T11:57:53.507Z,14324.00
2018-07-24T11:58:53.476Z,13808.00
2018-07-24T12:00:46.326Z,8060.00
2018-07-24T12:01:46.318Z,16832.00
2018-07-24T12:03:39.310Z,16640.00
2018-07-24T12:04:39.206Z,16736.00
2018-07-24T12:06:32.167Z,16960.00
2018-07-24T12:07:32.165Z,16992.00
2018-07-24T12:09:25.179Z,14836.00
2018-07-24T12:10:25.154Z,16416.00
2018-07-24T12:12:18.018Z,11716.00
2018-07-24T12:13:18.001Z,15600.00
2018-07-24T12:15:10.920Z,16320.00
2018-07-24T12:16:10.832Z,16480.00
2018-07-24T12:18:03.949Z,16704.00
2018-07-24T12:19:03.936Z,16768.00
2018-07-24T12:20:56.904Z,16768.00
2018-07-24T12:21:56.869Z,16800.00
2018-07-24T12:23:49.944Z,16960.00
2018-07-24T12:24:49.879Z,17024.00
2018-07-24T12:26:42.927Z,15904.00
2018-07-24T12:27:42.913Z,15840.00
2018-07-24T12:29:35.977Z,15840.00
2018-07-24T12:30:35.947Z,15616.00
2018-07-24T12:32:28.780Z,14432.00
2018-07-24T12:33:28.767Z,11836.00
2018-07-24T12:35:21.803Z,5556.00
2018-07-24T12:36:21.772Z,5416.00
2018-07-24T12:38:14.733Z,5924.00
2018-07-24T12:39:14.624Z,6048.00
2018-07-24T12:41:07.654Z,6440.00
2018-07-24T12:42:07.700Z,6404.00
2018-07-24T12:44:00.676Z,13260.00
2018-07-24T12:45:00.649Z,15456.00
2018-07-24T12:46:53.690Z,14516.00
2018-07-24T12:47:53.639Z,13900.00
2018-07-24T12:49:46.663Z,14388.00
2018-07-24T12:50:46.648Z,7364.00
2018-07-24T12:52:39.865Z,6920.00
2018-07-24T12:53:39.795Z,6708.00
2018-07-24T12:55:32.828Z,6756.00
2018-07-24T12:56:32.798Z,9988.00
2018-07-24T12:58:25.960Z,13536.00
2018-07-24T12:59:25.929Z,13852.00
2018-07-24T13:01:18.947Z,14576.00
2018-07-24T13:02:18.910Z,8168.00
2018-07-24T13:04:11.994Z,13804.00
2018-07-24T13:05:11.906Z,13308.00
2018-07-24T13:07:04.991Z,6396.00
2018-07-24T13:08:04.946Z,6324.00
2018-07-24T13:09:58.030Z,6688.00
2018-07-24T13:10:58.070Z,7300.00
2018-07-24T13:12:51.196Z,8768.00
2018-07-24T13:13:51.120Z,9028.00
2018-07-24T13:15:44.135Z,12348.00
2018-07-24T13:16:44.211Z,5984.00
2018-07-24T13:18:37.295Z,5548.00
2018-07-24T13:19:37.265Z,5516.00
2018-07-24T13:21:30.105Z,5692.00
2018-07-24T13:22:30.072Z,5596.00
2018-07-24T13:24:23.102Z,5544.00
2018-07-24T13:25:23.077Z,7608.00
2018-07-24T13:27:16.240Z,12300.00
2018-07-24T13:28:16.116Z,11904.00
2018-07-24T13:30:09.373Z,5336.00
2018-07-24T13:31:09.346Z,5396.00
2018-07-24T13:33:02.502Z,5280.00
2018-07-24T13:34:02.465Z,5276.00
2018-07-24T13:35:55.496Z,5848.00
2018-07-24T13:36:55.475Z,6256.00
2018-07-24T13:38:48.701Z,12332.00
2018-07-24T13:39:48.592Z,10692.00
2018-07-24T13:41:41.621Z,11896.00
2018-07-24T13:42:41.588Z,12076.00
2018-07-24T13:44:35.621Z,8424.00
2018-07-24T13:45:35.576Z,9380.00
2018-07-24T13:47:28.591Z,6248.00
2018-07-24T13:48:28.575Z,6252.00
2018-07-24T13:50:21.630Z,11244.00
2018-07-24T13:51:21.618Z,11224.00
2018-07-24T13:53:14.753Z,11164.00
2018-07-24T13:54:14.728Z,11044.00
2018-07-24T13:56:07.747Z,6060.00
2018-07-24T13:57:07.722Z,6508.00
2018-07-24T13:59:01.032Z,10548.00
2018-07-24T14:00:00.949Z,10684.00
2018-07-24T14:01:53.804Z,10148.00
2018-07-24T14:02:53.778Z,10360.00
2018-07-24T14:04:46.806Z,10524.00
2018-07-24T14:05:46.759Z,10380.00
2018-07-24T14:07:39.596Z,10356.00
2018-07-24T14:08:39.592Z,10476.00
2018-07-24T14:10:32.662Z,10556.00
2018-07-24T14:11:32.624Z,10408.00
2018-07-24T14:13:25.631Z,10280.00
2018-07-24T14:14:25.625Z,10324.00
2018-07-24T14:16:18.511Z,10124.00
2018-07-24T14:17:18.482Z,10080.00
2018-07-24T14:19:11.486Z,9824.00
2018-07-24T14:20:11.473Z,9812.00
2018-07-24T14:22:04.543Z,9944.00
2018-07-24T14:23:04.477Z,10132.00
2018-07-24T14:24:57.373Z,10100.00
2018-07-24T14:25:57.354Z,10084.00
2018-07-24T14:27:50.390Z,9744.00
2018-07-24T14:28:50.359Z,9776.00
2018-07-24T14:30:43.394Z,9648.00
2018-07-24T14:31:43.355Z,9516.00
2018-07-24T14:33:36.234Z,9524.00
2018-07-24T14:34:36.215Z,9816.00
2018-07-24T14:36:29.324Z,9752.00
2018-07-24T14:37:29.301Z,9712.00
2018-07-24T14:39:22.558Z,9696.00
2018-07-24T14:40:22.543Z,9688.00
2018-07-24T14:42:15.543Z,9852.00
2018-07-24T14:43:15.505Z,10072.00
2018-07-24T14:45:08.523Z,10072.00
2018-07-24T14:46:08.508Z,9964.00
2018-07-24T14:48:01.558Z,9684.00
2018-07-24T14:49:01.525Z,9800.00
2018-07-24T14:50:54.539Z,9772.00
2018-07-24T14:51:54.571Z,9528.00
2018-07-24T14:53:47.723Z,8872.00
2018-07-24T14:54:47.695Z,8956.00
2018-07-24T14:56:40.725Z,9064.00
2018-07-24T14:57:40.689Z,9216.00
2018-07-24T14:59:33.934Z,8764.00
2018-07-24T15:00:33.836Z,5060.00
2018-07-24T15:02:26.905Z,5068.00
2018-07-24T15:03:26.873Z,7716.00
2018-07-24T15:05:19.901Z,5072.00
2018-07-24T15:06:19.894Z,5076.00
2018-07-24T15:08:12.914Z,6524.00
2018-07-24T15:09:12.899Z,8428.00
2018-07-24T15:11:05.899Z,9032.00
2018-07-24T15:12:05.881Z,9192.00
2018-07-24T15:13:59.284Z,9676.00
2018-07-24T15:14:59.225Z,9804.00
2018-07-24T15:16:52.272Z,9644.00
2018-07-24T15:17:52.237Z,9460.00
2018-07-24T15:19:45.129Z,9308.00
2018-07-24T15:20:45.078Z,9008.00
2018-07-24T15:22:38.130Z,4896.00
2018-07-24T15:23:38.092Z,4964.00
2018-07-24T15:25:31.132Z,9128.00
2018-07-24T15:26:31.082Z,9228.00
2018-07-24T15:28:23.960Z,8808.00
2018-07-24T15:29:23.916Z,8888.00
2018-07-24T15:31:16.917Z,9016.00
2018-07-24T15:32:16.906Z,8888.00
2018-07-24T15:34:09.959Z,8552.00
2018-07-24T15:35:09.907Z,8644.00
2018-07-24T15:37:02.781Z,8648.00
2018-07-24T15:38:02.737Z,8596.00
2018-07-24T15:39:56.128Z,8408.00
2018-07-24T15:40:56.093Z,8172.00
2018-07-24T15:42:48.951Z,8028.00
2018-07-24T15:43:48.921Z,8008.00
2018-07-24T15:45:41.986Z,7772.00
2018-07-24T15:46:42.029Z,7748.00
2018-07-24T15:48:34.947Z,7500.00
2018-07-24T15:49:34.938Z,3116.00
2018-07-24T15:51:27.798Z,5752.00
2018-07-24T15:52:27.751Z,3452.00
2018-07-24T15:54:20.777Z,5296.00
2018-07-24T15:55:20.757Z,5932.00
2018-07-24T15:57:13.623Z,2544.00
2018-07-24T15:58:13.577Z,2420.00
2018-07-24T16:00:06.618Z,2388.00
2018-07-24T16:01:06.572Z,2400.00
2018-07-24T16:02:59.538Z,2408.00
2018-07-24T16:03:59.403Z,2992.00
2018-07-24T16:05:52.436Z,2464.00
2018-07-24T16:06:52.384Z,3076.00
2018-07-24T16:08:45.210Z,2656.00
2018-07-24T16:09:45.194Z,2780.00
2018-07-24T16:11:38.417Z,2880.00
2018-07-24T16:12:38.393Z,2928.00
2018-07-24T16:14:31.416Z,3600.00
2018-07-24T16:15:31.483Z,6840.00
2018-07-24T16:17:24.624Z,6672.00
2018-07-24T16:18:24.573Z,6884.00
2018-07-24T16:20:17.629Z,6260.00
2018-07-24T16:21:17.617Z,5972.00
2018-07-24T16:23:10.415Z,6264.00
2018-07-24T16:24:10.398Z,6192.00
2018-07-24T16:26:03.289Z,5896.00
2018-07-24T16:27:03.248Z,5740.00
2018-07-24T16:28:56.324Z,2776.00
2018-07-24T16:29:56.267Z,5348.00
2018-07-24T16:31:49.334Z,6092.00
2018-07-24T16:32:49.310Z,6228.00
2018-07-24T16:34:42.279Z,6276.00
2018-07-24T16:35:42.133Z,6168.00
2018-07-24T16:37:35.031Z,6160.00
2018-07-24T16:38:34.969Z,6220.00
2018-07-24T16:40:27.998Z,6140.00
2018-07-24T16:41:27.989Z,5840.00
2018-07-24T16:43:21.227Z,5712.00
2018-07-24T16:44:21.124Z,5612.00
2018-07-24T16:46:14.168Z,5464.00
2018-07-24T16:47:14.135Z,5448.00
2018-07-24T16:49:07.366Z,5560.00
2018-07-24T16:50:07.328Z,5604.00
2018-07-24T16:52:00.375Z,5432.00
2018-07-24T16:53:00.342Z,5312.00
2018-07-24T16:54:53.348Z,4984.00
2018-07-24T16:55:53.313Z,4776.00
2018-07-24T16:57:46.377Z,4648.00
2018-07-24T16:58:46.350Z,4640.00
2018-07-24T17:00:39.428Z,4484.00
2018-07-24T17:01:39.388Z,4336.00
2018-07-24T17:03:32.348Z,4120.00
2018-07-24T17:04:32.309Z,4056.00
2018-07-24T17:06:25.390Z,3784.00
2018-07-24T17:07:25.339Z,3756.00
2018-07-24T17:09:18.201Z,3576.00
2018-07-24T17:10:18.144Z,3400.00
2018-07-24T17:12:11.365Z,3360.00
2018-07-24T17:13:11.325Z,3420.00
2018-07-24T17:15:04.390Z,3600.00
2018-07-24T17:16:04.380Z,3588.00
2018-07-24T17:17:57.604Z,3648.00
2018-07-24T17:18:57.579Z,3632.00
2018-07-24T17:20:50.685Z,3512.00
2018-07-24T17:21:50.656Z,3444.00
2018-07-24T17:23:43.855Z,3288.00
2018-07-24T17:24:43.819Z,3160.00
2018-07-24T17:26:36.907Z,3076.00
2018-07-24T17:27:36.933Z,3064.00
2018-07-24T17:29:30.035Z,3008.00
2018-07-24T17:30:30.001Z,2948.00
2018-07-24T17:32:22.860Z,2772.00
2018-07-24T17:33:22.809Z,2584.00
2018-07-24T17:35:15.686Z,2528.00
2018-07-24T17:36:15.670Z,2476.00
2018-07-24T17:38:08.476Z,2512.00
2018-07-24T17:39:08.430Z,2624.00
2018-07-24T17:41:01.286Z,2572.00
2018-07-24T17:42:01.237Z,2520.00
2018-07-24T17:43:54.270Z,2436.00